< < Back
Terminal Aerodrome Forecast


Current Version              Previous Versions:   1  2  3  4  5  6  7  8  9  

Terminal Aerodrome Forecast

951
FTUS44 KMOB 210820 AAA
TAFPNS
TAF AMD
KPNS 210820Z 2108/2206 VRB03KT P6SM SKC
      TEMPO 2110/2112 4SM BR BKN007
     FM211800 33006KT P6SM VCTS SCT030CB PROB30 2121/2124 P6SM TSRA
      BKN050CB
     FM220000 33004KT P6SM SCT100=

Latest METAR

853
SAUS70 KWBC 221100 RRD
MTRPNS
METAR KPNS 221053Z 01010G16KT 10SM BKN016 BKN080 18/15 A3012 RMK AO2
SLP201 T01830150


USA.gov is the U.S. government's official web portal to all federal, state and local government web resources and services.